Terminal Aerodrome Forecast
Issued by NWS

Home | Current Version | Previous Version | Text Only | Print | Product List | Glossary On
Versions: 1 2 3 4 5 6 7 8 9 10 11 12 13 14 15 16 17 18 19 20 21 22
000
FTUS43 KICT 201741
TAFCNU
TAF
KCNU 201741Z 2018/2118 35015G20KT P6SM OVC012
     FM202100 01015G20KT P6SM BKN020
     FM210100 04006KT P6SM SCT020 BKN035
     FM210900 02004KT 4SM BR SCT020
     FM211500 04007KT P6SM SCT050=

USA.gov is the U.S. government's official web portal to all federal, state and local government web resources and services.